Time;durP1;ratioP1;P1;durP2;ratioP2;P2;SDS_P1;SDS_P2;PMS_P1;PMS_P2;Temp;Humidity;BMP_temperature;BMP_pressure;BME280_temperature;BME280_humidity;BME280_pressure;Samples;Min_cycle;Max_cycle;Signal;HPM_P1;HPM_P2
2022/06/05 00:02:31;;;;;;;9.65;2.22;;;15.50;99.90;;;;;;5057976;28;20070;-85
2022/06/05 00:05:18;;;;;;;5.72;1.50;;;15.40;99.90;;;;;;5057926;28;20036;-88
2022/06/05 00:08:11;;;;;;;5.60;1.45;;;15.40;99.90;;;;;;5056757;28;20016;-86
2022/06/05 00:10:46;;;;;;;3.42;1.13;;;15.30;99.90;;;;;;5056766;28;20033;-86
2022/06/05 00:13:40;;;;;;;5.75;2.65;;;15.30;99.90;;;;;;5057735;28;20483;-84
2022/06/05 00:16:06;;;;;;;5.00;1.90;;;15.30;99.90;;;;;;5056154;28;20029;-86
2022/06/05 00:18:34;;;;;;;6.07;1.70;;;15.30;99.90;;;;;;5057390;28;20028;-85
2022/06/05 00:21:00;;;;;;;4.40;1.60;;;15.20;99.90;;;;;;5058716;28;20036;-85
2022/06/05 00:23:25;;;;;;;5.60;1.60;;;16.20;99.90;;;;;;5056024;28;20025;-86
2022/06/05 00:26:17;;;;;;;4.13;1.65;;;15.60;99.90;;;;;;5057108;28;20044;-85
2022/06/05 00:29:07;;;;;;;2.53;1.30;;;15.30;99.90;;;;;;5056127;28;20021;-84
2022/06/05 00:31:47;;;;;;;7.93;2.03;;;15.80;99.90;;;;;;5055887;28;20033;-87
2022/06/05 00:34:13;;;;;;;6.82;2.20;;;15.00;99.90;;;;;;5058439;28;20137;-85
2022/06/05 00:36:54;;;;;;;4.60;2.22;;;15.00;99.90;;;;;;5057138;28;20458;-85
2022/06/05 00:39:19;;;;;;;8.07;1.67;;;15.00;99.90;;;;;;5056698;28;20036;-85
2022/06/05 00:42:03;;;;;;;4.05;1.92;;;15.00;99.90;;;;;;5057068;28;20033;-85
2022/06/05 00:44:37;;;;;;;5.45;1.65;;;15.00;99.90;;;;;;5057925;28;20023;-84
2022/06/05 00:47:04;;;;;;;5.20;2.03;;;14.90;99.90;;;;;;5055671;28;20024;-85
2022/06/05 00:49:39;;;;;;;5.30;2.13;;;14.90;99.90;;;;;;5056348;28;20017;-84
2022/06/05 00:52:07;;;;;;;2.85;1.63;;;14.90;99.90;;;;;;5056135;28;20025;-86
2022/06/05 00:54:33;;;;;;;10.48;2.58;;;14.80;99.90;;;;;;5056055;28;20497;-85
2022/06/05 00:56:58;;;;;;;14.10;1.90;;;17.20;99.90;;;;;;5055877;28;20099;-85
2022/06/05 00:59:26;;;;;;;8.70;2.65;;;14.90;99.90;;;;;;5055919;28;20028;-88
2022/06/05 01:01:52;;;;;;;4.82;2.13;;;14.50;99.90;;;;;;5055548;28;20040;-87
2022/06/05 01:04:19;;;;;;;5.15;2.05;;;14.70;99.90;;;;;;5056017;28;20112;-85
2022/06/05 01:06:45;;;;;;;6.10;1.70;;;14.20;99.90;;;;;;5056090;28;20143;-85
2022/06/05 01:09:11;;;;;;;6.32;1.95;;;16.20;99.90;;;;;;5055565;28;20052;-85
2022/06/05 01:11:44;;;;;;;4.75;2.00;;;14.80;99.90;;;;;;5055463;28;20026;-87
2022/06/05 01:14:43;;;;;;;6.15;1.88;;;14.80;99.90;;;;;;5057355;28;20096;-83
2022/06/05 01:17:24;;;;;;;8.25;1.88;;;14.70;99.90;;;;;;5057110;28;20375;-84
2022/06/05 01:20:00;;;;;;;4.45;1.50;;;15.20;99.90;;;;;;5056059;28;20017;-84
2022/06/05 01:22:48;;;;;;;5.78;2.15;;;14.80;99.90;;;;;;5056241;28;20026;-84
2022/06/05 01:25:43;;;;;;;11.37;2.20;;;14.80;99.90;;;;;;5056852;28;20057;-83
2022/06/05 01:28:14;;;;;;;4.72;1.70;;;14.80;99.90;;;;;;5056797;28;20021;-83
2022/06/05 01:31:07;;;;;;;3.45;1.80;;;14.70;99.90;;;;;;5065084;22;20194;-86
2022/06/05 01:33:39;;;;;;;2.92;1.30;;;16.50;99.90;;;;;;5057001;28;20036;-84
2022/06/05 01:36:19;;;;;;;3.13;1.42;;;14.70;99.90;;;;;;5056001;28;20021;-84
2022/06/05 01:38:58;;;;;;;5.82;2.10;;;15.10;99.90;;;;;;5056446;28;20104;-84
2022/06/05 01:41:32;;;;;;;7.65;1.80;;;14.70;99.90;;;;;;5035957;28;20030;-83
2022/06/05 01:44:02;;;;;;;5.00;1.73;;;15.50;99.90;;;;;;5036991;28;20426;-87
2022/06/05 01:46:36;;;;;;;4.35;2.40;;;15.20;99.90;;;;;;5040430;28;20083;-84
2022/06/05 01:49:29;;;;;;;4.60;1.98;;;14.60;99.90;;;;;;5042503;28;20056;-85
2022/06/05 01:51:59;;;;;;;6.10;2.15;;;18.00;99.90;;;;;;5039072;28;20056;-84
2022/06/05 01:54:42;;;;;;;4.70;1.40;;;14.60;99.90;;;;;;5055991;28;20025;-85
2022/06/05 01:57:11;;;;;;;4.97;2.00;;;14.60;99.90;;;;;;5041827;28;20037;-84
2022/06/05 01:59:50;;;;;;;5.75;2.03;;;14.60;99.90;;;;;;5040800;28;20025;-85
2022/06/05 02:02:25;;;;;;;4.50;2.25;;;14.60;99.90;;;;;;5041537;28;20026;-84
2022/06/05 02:05:05;;;;;;;7.75;2.47;;;14.60;99.90;;;;;;5041302;28;20048;-84
2022/06/05 02:07:54;;;;;;;8.55;1.77;;;14.60;99.90;;;;;;5039730;28;20018;-84
2022/06/05 02:10:38;;;;;;;5.57;1.88;;;16.00;99.90;;;;;;5054845;28;20036;-85
2022/06/05 02:13:04;;;;;;;5.03;1.67;;;15.00;99.90;;;;;;5040740;28;20509;-85
2022/06/05 02:15:31;;;;;;;5.13;2.53;;;16.20;99.90;;;;;;5038662;28;20018;-84
2022/06/05 02:17:58;;;;;;;3.67;1.77;;;15.50;99.90;;;;;;5038812;28;20018;-83
2022/06/05 02:20:24;;;;;;;10.57;2.65;;;17.10;99.90;;;;;;5038464;28;20119;-85
2022/06/05 02:22:51;;;;;;;4.80;1.83;;;17.00;99.90;;;;;;5041683;28;20018;-84
2022/06/05 02:25:21;;;;;;;6.35;2.28;;;16.00;99.90;;;;;;5040536;28;20418;-83
2022/06/05 02:27:46;;;;;;;3.78;1.75;;;;;;;;;;5040872;28;20098;-85
2022/06/05 02:30:15;;;;;;;5.88;1.95;;;14.70;99.90;;;;;;5040053;28;20041;-84
2022/06/05 02:32:55;;;;;;;6.40;1.83;;;14.70;99.90;;;;;;5041785;28;20361;-85
2022/06/05 02:36:05;;;;;;;6.45;2.05;;;14.70;99.90;;;;;;5043198;28;20470;-84
2022/06/05 02:38:53;;;;;;;5.50;1.90;;;14.70;99.90;;;;;;5040007;28;20018;-84
2022/06/05 02:41:27;;;;;;;6.97;2.40;;;14.80;99.90;;;;;;5040554;28;20033;-84
2022/06/05 02:46:54;;;;;;;2.55;1.50;;;14.80;99.90;;;;;;5040987;28;20042;-82
2022/06/05 02:49:39;;;;;;;5.17;1.80;;;15.20;99.90;;;;;;5038547;28;20017;-83
2022/06/05 02:52:07;;;;;;;2.65;1.77;;;14.80;99.90;;;;;;5039091;28;20041;-85
2022/06/05 02:54:42;;;;;;;4.75;2.22;;;15.10;99.90;;;;;;5038892;28;20028;-84
2022/06/05 02:57:08;;;;;;;6.55;1.92;;;15.30;99.90;;;;;;5040859;28;20028;-84
2022/06/05 02:59:34;;;;;;;6.50;2.75;;;14.70;99.90;;;;;;5039201;28;20075;-84
2022/06/05 03:04:44;;;;;;;3.58;1.85;;;16.50;99.90;;;;;;5041815;28;20056;-84
2022/06/05 03:07:09;;;;;;;8.10;2.10;;;14.60;99.90;;;;;;5040531;28;20383;-86
2022/06/05 03:09:35;;;;;;;4.85;2.10;;;15.80;99.90;;;;;;5038670;28;20402;-83
2022/06/05 03:12:01;;;;;;;6.38;2.33;;;14.40;99.90;;;;;;5040001;28;20030;-83
2022/06/05 03:14:29;;;;;;;4.88;2.88;;;14.50;99.90;;;;;;5040443;28;20032;-83
2022/06/05 03:16:55;;;;;;;4.78;2.28;;;14.50;99.90;;;;;;5038577;28;20385;-83
2022/06/05 03:19:22;;;;;;;3.63;2.22;;;;;;;;;;5038452;28;20029;-83
2022/06/05 03:21:48;;;;;;;5.95;2.65;;;14.50;99.90;;;;;;5037960;28;20029;-83
2022/06/05 03:24:14;;;;;;;5.18;2.58;;;14.50;99.90;;;;;;5038257;28;20056;-83
2022/06/05 03:26:39;;;;;;;4.05;2.05;;;14.50;99.90;;;;;;5038542;28;20085;-85
2022/06/05 03:29:07;;;;;;;6.68;3.08;;;17.20;99.90;;;;;;5040423;28;20454;-83
2022/06/05 03:31:36;;;;;;;5.97;2.17;;;17.00;99.90;;;;;;5037678;28;20030;-83
2022/06/05 03:34:01;;;;;;;7.32;2.03;;;14.10;99.90;;;;;;5038589;28;20029;-85
2022/06/05 03:36:27;;;;;;;4.65;2.97;;;14.10;99.90;;;;;;5038131;28;20032;-84
2022/06/05 03:38:53;;;;;;;6.72;2.22;;;14.40;99.90;;;;;;5038357;28;20061;-83
2022/06/05 03:41:18;;;;;;;6.55;2.50;;;17.20;99.90;;;;;;5037536;28;20571;-85
2022/06/05 03:43:45;;;;;;;6.72;2.50;;;14.30;99.90;;;;;;5037786;28;20021;-85
2022/06/05 03:46:13;;;;;;;6.82;3.00;;;14.30;99.90;;;;;;5037930;28;20017;-86
2022/06/05 03:48:39;;;;;;;8.43;3.30;;;15.30;99.90;;;;;;5037043;28;20049;-86
2022/06/05 03:51:10;;;;;;;8.35;3.33;;;14.20;99.90;;;;;;5037981;28;20409;-84
2022/06/05 03:53:35;;;;;;;5.93;2.75;;;12.50;99.90;;;;;;5037506;28;20022;-85
2022/06/05 03:56:01;;;;;;;9.90;2.95;;;15.40;99.90;;;;;;5038764;28;20489;-84
2022/06/05 03:58:27;;;;;;;5.60;3.38;;;;;;;;;;5040987;28;20021;-84
2022/06/05 04:00:52;;;;;;;9.23;3.85;;;14.20;99.90;;;;;;5038416;28;20040;-83
2022/06/05 04:03:19;;;;;;;6.43;3.00;;;14.80;99.90;;;;;;5038325;28;20021;-84
2022/06/05 04:05:45;;;;;;;8.98;3.47;;;14.20;99.90;;;;;;5038000;28;20382;-85
2022/06/05 04:08:14;;;;;;;5.22;3.20;;;14.40;99.90;;;;;;5052940;28;20020;-84
2022/06/05 04:10:40;;;;;;;10.02;3.70;;;14.20;99.90;;;;;;5037204;28;20025;-85
2022/06/05 04:13:08;;;;;;;7.28;3.13;;;14.20;99.90;;;;;;5038259;28;20069;-84
2022/06/05 04:15:40;;;;;;;6.97;3.00;;;14.20;99.90;;;;;;5035941;28;20087;-86
2022/06/05 04:18:07;;;;;;;7.22;3.40;;;14.10;99.90;;;;;;5038492;28;20022;-84
2022/06/05 04:20:33;;;;;;;13.25;3.53;;;14.20;99.90;;;;;;5051935;28;20025;-84
2022/06/05 04:23:00;;;;;;;5.45;2.53;;;16.10;99.90;;;;;;5038891;28;20551;-84
2022/06/05 04:25:26;;;;;;;13.10;3.15;;;15.80;99.90;;;;;;5038569;28;20021;-84
2022/06/05 04:27:52;;;;;;;8.60;3.63;;;15.30;99.90;;;;;;5036679;28;20528;-85
2022/06/05 04:30:18;;;;;;;7.75;3.58;;;15.40;99.90;;;;;;5036641;28;20037;-84
2022/06/05 04:32:43;;;;;;;7.70;3.63;;;14.20;99.90;;;;;;5037975;28;20021;-84
2022/06/05 04:35:10;;;;;;;5.45;2.65;;;14.40;99.90;;;;;;5037119;28;20021;-84
2022/06/05 04:37:36;;;;;;;9.77;3.53;;;14.20;99.90;;;;;;5038063;28;20029;-84
2022/06/05 04:40:03;;;;;;;8.35;3.92;;;14.30;99.90;;;;;;5037105;28;20052;-84
2022/06/05 04:42:30;;;;;;;6.03;3.40;;;14.30;99.90;;;;;;5036644;28;20036;-83
2022/06/05 04:44:56;;;;;;;8.70;3.28;;;14.30;99.90;;;;;;5036123;28;20084;-83
2022/06/05 04:47:22;;;;;;;7.60;3.55;;;14.30;99.90;;;;;;5053006;28;20020;-82
2022/06/05 04:49:50;;;;;;;8.20;3.60;;;14.40;99.90;;;;;;5039400;28;20026;-84
2022/06/05 04:52:16;;;;;;;8.88;4.05;;;14.30;99.90;;;;;;5041053;28;20021;-84
2022/06/05 04:54:41;;;;;;;11.43;4.45;;;14.30;99.90;;;;;;5041619;28;20029;-85
2022/06/05 04:57:07;;;;;;;9.32;4.30;;;14.30;99.90;;;;;;5043574;28;20356;-83
2022/06/05 04:59:33;;;;;;;8.27;4.22;;;14.80;99.90;;;;;;5041757;28;20028;-83
2022/06/05 05:01:58;;;;;;;7.28;4.13;;;14.30;99.90;;;;;;5040885;28;20022;-84
2022/06/05 05:04:24;;;;;;;9.57;4.07;;;14.10;99.90;;;;;;5043261;28;20040;-84
2022/06/05 05:06:50;;;;;;;18.17;4.68;;;16.10;99.90;;;;;;5040874;28;20079;-84
2022/06/05 05:09:16;;;;;;;9.73;3.92;;;;;;;;;;5043415;28;20081;-84
2022/06/05 05:11:42;;;;;;;8.27;3.85;;;14.30;99.90;;;;;;5040646;28;20084;-83
2022/06/05 05:14:09;;;;;;;11.50;3.85;;;13.50;99.90;;;;;;5040821;28;20022;-82
2022/06/05 05:16:35;;;;;;;13.23;4.47;;;16.80;99.90;;;;;;5040959;28;20026;-83
2022/06/05 05:19:01;;;;;;;9.45;4.28;;;12.20;99.90;;;;;;5044159;28;20104;-83
2022/06/05 05:21:28;;;;;;;6.30;3.72;;;14.00;99.90;;;;;;5043000;28;20171;-82
2022/06/05 05:23:54;;;;;;;7.70;3.90;;;14.30;99.90;;;;;;5042798;28;20025;-82
2022/06/05 05:26:24;;;;;;;7.50;3.40;;;14.20;99.90;;;;;;5044602;28;20470;-83
2022/06/05 05:28:51;;;;;;;8.40;4.30;;;14.50;99.90;;;;;;5043128;28;20159;-83
2022/06/05 05:31:21;;;;;;;9.38;4.80;;;15.60;99.90;;;;;;5043416;28;20025;-83
2022/06/05 05:33:48;;;;;;;7.10;3.70;;;14.50;99.90;;;;;;5042449;28;20386;-83
2022/06/05 05:36:14;;;;;;;12.73;4.70;;;16.00;99.90;;;;;;5042709;28;20033;-82
2022/06/05 05:42:04;;;;;;;9.52;4.80;;;14.30;99.90;;;;;;5043987;28;20028;-83
2022/06/05 05:44:09;;;;;;;11.18;4.82;;;16.20;99.90;;;;;;5043156;28;20036;-82
2022/06/05 05:46:35;;;;;;;9.48;4.75;;;14.20;99.90;;;;;;5043068;28;20104;-82
2022/06/05 05:49:00;;;;;;;10.52;4.63;;;14.30;99.90;;;;;;5043796;28;20053;-82
2022/06/05 05:51:26;;;;;;;10.77;3.97;;;16.40;99.90;;;;;;5044080;28;20033;-82
2022/06/05 05:53:52;;;;;;;8.25;4.30;;;14.30;99.90;;;;;;5042746;28;20138;-82
2022/06/05 05:56:17;;;;;;;9.55;4.50;;;14.30;99.90;;;;;;5042205;28;20014;-83
2022/06/05 05:58:43;;;;;;;6.53;3.55;;;14.40;99.90;;;;;;5041149;28;20501;-83
2022/06/05 06:01:10;;;;;;;8.68;3.75;;;14.30;99.90;;;;;;5042579;28;20105;-84
2022/06/05 06:03:36;;;;;;;10.55;4.03;;;14.40;99.90;;;;;;5041795;28;20026;-83
2022/06/05 06:06:02;;;;;;;11.80;4.55;;;14.70;99.90;;;;;;5043938;28;20108;-85
2022/06/05 06:08:28;;;;;;;11.02;4.60;;;14.40;99.90;;;;;;5043428;28;20022;-83
2022/06/05 06:10:54;;;;;;;10.52;4.18;;;14.50;99.90;;;;;;5045599;28;20021;-83
2022/06/05 06:13:20;;;;;;;8.20;4.25;;;14.50;99.90;;;;;;5044794;28;20033;-83
2022/06/05 06:15:46;;;;;;;10.85;4.85;;;14.90;99.90;;;;;;5045342;28;20013;-84
2022/06/05 06:18:11;;;;;;;10.95;4.28;;;17.30;99.90;;;;;;5044369;28;20075;-83
2022/06/05 06:20:37;;;;;;;8.82;4.47;;;16.50;99.90;;;;;;5044740;28;20044;-83
2022/06/05 06:23:03;;;;;;;8.98;4.47;;;14.70;99.90;;;;;;5043370;28;20021;-83
2022/06/05 06:25:29;;;;;;;8.50;4.60;;;14.70;99.90;;;;;;5044288;28;20029;-83
2022/06/05 06:27:54;;;;;;;7.75;4.57;;;16.90;99.90;;;;;;5042200;28;20014;-83
2022/06/05 06:30:20;;;;;;;7.75;3.80;;;15.40;99.90;;;;;;5041955;28;20103;-83
2022/06/05 06:32:45;;;;;;;8.10;4.03;;;15.60;99.90;;;;;;5043300;28;20405;-83
2022/06/05 06:35:11;;;;;;;7.65;4.60;;;14.90;99.90;;;;;;5041517;28;20029;-83
2022/06/05 06:37:37;;;;;;;11.48;4.68;;;15.00;99.90;;;;;;5057665;28;20025;-83
2022/06/05 06:40:03;;;;;;;9.65;3.80;;;15.20;99.90;;;;;;5041948;28;20036;-83
2022/06/05 06:42:28;;;;;;;7.82;4.30;;;15.10;99.90;;;;;;5042537;28;20043;-83
2022/06/05 06:44:55;;;;;;;8.05;4.13;;;15.10;99.90;;;;;;5042266;28;20058;-84
2022/06/05 06:47:21;;;;;;;5.45;3.17;;;15.20;99.90;;;;;;5041601;28;20156;-84
2022/06/05 06:49:47;;;;;;;7.97;4.57;;;15.30;99.90;;;;;;5044197;28;20506;-83
2022/06/05 06:52:12;;;;;;;8.70;4.45;;;15.40;99.90;;;;;;5042750;28;20217;-83
2022/06/05 06:54:38;;;;;;;6.35;4.00;;;15.40;99.90;;;;;;5041736;28;20052;-84
2022/06/05 06:57:04;;;;;;;6.55;3.33;;;15.50;99.90;;;;;;5042954;28;20047;-84
2022/06/05 06:59:30;;;;;;;10.38;4.43;;;15.60;99.90;;;;;;5041558;28;20029;-83
2022/06/05 07:01:55;;;;;;;9.38;3.95;;;15.70;99.90;;;;;;5042794;28;20014;-83
2022/06/05 07:04:21;;;;;;;10.65;4.82;;;17.30;99.90;;;;;;5043036;28;20018;-84
2022/06/05 07:06:47;;;;;;;8.52;4.05;;;16.40;99.90;;;;;;5041769;28;20477;-85
2022/06/05 07:09:14;;;;;;;10.10;4.05;;;16.00;99.90;;;;;;5040797;28;20470;-83
2022/06/05 07:11:40;;;;;;;6.75;3.72;;;16.00;99.90;;;;;;5042539;28;20027;-84
2022/06/05 07:14:06;;;;;;;6.32;3.97;;;16.60;99.90;;;;;;5040201;28;20028;-84
2022/06/05 07:16:32;;;;;;;9.52;3.53;;;16.10;99.90;;;;;;5040197;28;20495;-84
2022/06/05 07:18:57;;;;;;;6.90;4.35;;;16.20;99.90;;;;;;5039969;28;20109;-86
2022/06/05 07:21:24;;;;;;;5.93;3.42;;;16.30;99.90;;;;;;5040035;28;20505;-85
2022/06/05 07:23:50;;;;;;;10.30;4.25;;;18.90;99.90;;;;;;5041260;28;20168;-86
2022/06/05 07:26:19;;;;;;;10.40;3.72;;;16.40;99.90;;;;;;5040540;28;20041;-85
2022/06/05 07:28:45;;;;;;;9.35;3.55;;;17.40;99.90;;;;;;5042378;28;20024;-83
2022/06/05 07:31:13;;;;;;;7.60;4.00;;;16.40;99.90;;;;;;5040851;28;20508;-84
2022/06/05 07:33:40;;;;;;;5.28;3.28;;;16.80;99.90;;;;;;5039428;28;20031;-85
2022/06/05 07:36:12;;;;;;;6.15;3.42;;;16.90;99.90;;;;;;5041450;28;20025;-85
2022/06/05 07:38:39;;;;;;;8.55;3.50;;;17.80;99.90;;;;;;5040195;28;20097;-86
2022/06/05 07:41:07;;;;;;;9.10;4.25;;;17.20;99.90;;;;;;5039123;28;20018;-85
2022/06/05 07:43:33;;;;;;;7.10;3.95;;;17.50;99.90;;;;;;5040440;28;20506;-85
2022/06/05 07:46:04;;;;;;;8.35;3.33;;;20.30;99.90;;;;;;5040466;28;20155;-87
2022/06/05 07:48:33;;;;;;;6.97;3.95;;;20.00;99.90;;;;;;5041824;28;20045;-86
2022/06/05 07:56:34;;;;;;;5.75;3.42;;;18.30;99.90;;;;;;5041175;28;20086;-85
2022/06/05 07:58:59;;;;;;;7.30;3.20;;;19.90;99.90;;;;;;5039637;28;20029;-84
2022/06/05 08:01:25;;;;;;;7.43;3.28;;;18.60;99.90;;;;;;5042446;28;20053;-84
2022/06/05 08:03:51;;;;;;;9.90;3.45;;;18.90;99.90;;;;;;5039650;28;20022;-83
2022/06/05 08:06:16;;;;;;;6.55;3.25;;;18.70;99.90;;;;;;5039315;28;20021;-84
2022/06/05 08:08:42;;;;;;;4.03;2.17;;;18.80;99.90;;;;;;5056140;28;20026;-84
2022/06/05 08:11:08;;;;;;;5.13;2.53;;;18.70;99.90;;;;;;5038740;28;20021;-85
2022/06/05 08:13:34;;;;;;;4.47;2.95;;;19.80;99.90;;;;;;5055862;28;20026;-85
2022/06/05 08:16:00;;;;;;;6.78;3.40;;;19.00;99.90;;;;;;5055463;28;20083;-85
2022/06/05 08:18:25;;;;;;;6.60;3.28;;;19.20;99.90;;;;;;5038552;28;20021;-85
2022/06/05 08:20:51;;;;;;;5.72;3.00;;;19.30;99.90;;;;;;5038687;28;20064;-85
2022/06/05 08:23:17;;;;;;;5.70;3.28;;;20.20;99.90;;;;;;5039198;28;20367;-84
2022/06/05 08:25:43;;;;;;;8.02;3.45;;;20.00;99.90;;;;;;5039213;28;20447;-85
2022/06/05 08:28:10;;;;;;;6.45;3.38;;;20.20;99.90;;;;;;5055672;28;20072;-84
2022/06/05 08:30:37;;;;;;;3.40;2.35;;;20.00;99.90;;;;;;5039487;28;20033;-85
2022/06/05 08:33:03;;;;;;;4.93;3.05;;;20.20;99.90;;;;;;5040208;28;20025;-84
2022/06/05 08:35:28;;;;;;;4.88;2.63;;;20.40;99.90;;;;;;5039396;28;20393;-84
2022/06/05 08:43:46;;;;;;;3.28;2.40;;;20.70;99.90;;;;;;5040504;28;20036;-84
2022/06/05 08:46:26;;;;;;;7.05;2.78;;;20.80;99.90;;;;;;5039046;28;20025;-85
2022/06/05 08:48:56;;;;;;;7.05;3.05;;;20.90;99.90;;;;;;5037609;28;20033;-85
2022/06/05 08:51:40;;;;;;;5.18;2.25;;;21.10;99.90;;;;;;5038958;28;20022;-87
2022/06/05 08:54:21;;;;;;;4.07;1.92;;;21.30;99.90;;;;;;5038011;28;20467;-84
2022/06/05 08:57:00;;;;;;;6.45;2.58;;;21.40;99.90;;;;;;5038249;28;20028;-87
2022/06/05 08:59:46;;;;;;;5.93;2.25;;;21.60;99.90;;;;;;5037908;28;20386;-85
2022/06/05 09:02:30;;;;;;;4.07;2.13;;;21.80;99.90;;;;;;5039775;28;20516;-87
2022/06/05 09:05:05;;;;;;;6.57;2.17;;;22.00;99.90;;;;;;5039973;28;20080;-86
2022/06/05 09:07:40;;;;;;;3.70;2.50;;;22.10;99.90;;;;;;5038386;28;20017;-88
2022/06/05 09:10:22;;;;;;;4.22;2.67;;;21.90;99.90;;;;;;5038669;28;20031;-86
2022/06/05 09:12:54;;;;;;;3.53;1.77;;;22.30;99.90;;;;;;5038057;28;20022;-86
2022/06/05 09:15:34;;;;;;;3.15;1.77;;;22.40;99.90;;;;;;5053704;28;20029;-85
2022/06/05 09:18:05;;;;;;;5.20;1.73;;;22.50;99.90;;;;;;5037235;28;20030;-87
2022/06/05 09:21:05;;;;;;;6.13;2.05;;;22.60;99.90;;;;;;5054497;28;20022;-85
2022/06/05 09:23:34;;;;;;;3.60;2.15;;;22.80;99.90;;;;;;5027908;28;20083;-86
2022/06/05 09:26:44;;;;;;;3.40;1.67;;;24.70;99.90;;;;;;5039288;28;20082;-87
2022/06/05 09:29:51;;;;;;;3.47;1.95;;;22.90;99.90;;;;;;5036655;28;20033;-86
2022/06/05 09:33:01;;;;;;;2.22;1.75;;;23.00;99.90;;;;;;5016822;28;20034;-86
2022/06/05 09:35:39;;;;;;;3.75;1.88;;;23.10;99.90;;;;;;4979261;28;20041;-85
2022/06/05 09:38:11;;;;;;;;;;;23.20;99.90;;;;;;5035122;28;20060;-86
2022/06/05 09:40:39;;;;;;;4.38;2.47;;;23.30;99.90;;;;;;5037118;28;19909;-86
2022/06/05 09:43:07;;;;;;;5.43;2.53;;;23.40;99.90;;;;;;5037903;28;20017;-86
2022/06/05 09:45:59;;;;;;;3.33;1.95;;;23.30;99.90;;;;;;5038001;28;20101;-86
2022/06/05 09:48:49;;;;;;;1.42;1.20;;;23.30;99.90;;;;;;5017395;28;20088;-87
2022/06/05 09:51:16;;;;;;;2.25;1.45;;;23.30;99.90;;;;;;5036045;28;20120;-86
2022/06/05 09:54:08;;;;;;;2.45;1.83;;;23.30;99.90;;;;;;5035860;28;20056;-85
2022/06/05 09:58:24;;;;;;;5.15;2.28;;;23.40;99.90;;;;;;5030653;28;20038;-85
2022/06/05 09:59:40;;;;;;;2.15;1.67;;;23.40;99.90;;;;;;5037164;28;20095;-87
2022/06/05 10:02:07;;;;;;;2.70;1.90;;;23.60;99.90;;;;;;5038285;28;20448;-87
2022/06/05 10:04:34;;;;;;;3.47;1.73;;;23.60;99.90;;;;;;5037066;28;20501;-87
2022/06/05 10:07:14;;;;;;;2.85;2.15;;;23.70;99.50;;;;;;5041174;28;20489;-86
2022/06/05 10:09:45;;;;;;;2.63;1.90;;;23.70;99.10;;;;;;5040648;28;20032;-86
2022/06/05 10:12:53;;;;;;;3.42;2.22;;;23.60;98.50;;;;;;5056347;28;20546;-87
2022/06/05 10:15:40;;;;;;;1.88;1.60;;;23.60;98.80;;;;;;5019709;28;20493;-87
2022/06/05 10:18:45;;;;;;;3.53;2.35;;;23.60;99.00;;;;;;5040289;28;20052;-88
2022/06/05 10:21:12;;;;;;;2.60;1.70;;;23.60;98.70;;;;;;5036630;28;20033;-88
2022/06/05 10:24:04;;;;;;;4.95;2.25;;;23.60;99.30;;;;;;5041014;28;20032;-87
2022/06/05 10:26:35;;;;;;;3.17;1.73;;;23.60;99.00;;;;;;5041734;28;20087;-86
2022/06/05 10:29:14;;;;;;;2.38;2.13;;;23.70;99.20;;;;;;5040514;28;20085;-87
2022/06/05 10:31:52;;;;;;;6.05;2.38;;;23.40;98.80;;;;;;5043083;28;20105;-86
2022/06/05 10:34:38;;;;;;;3.50;2.05;;;23.60;98.60;;;;;;5041660;28;20386;-86
2022/06/05 10:37:26;;;;;;;5.40;2.20;;;23.50;99.60;;;;;;5040648;28;20060;-85
2022/06/05 10:40:04;;;;;;;3.53;2.22;;;23.40;99.60;;;;;;5039324;28;20549;-87
2022/06/05 10:42:47;;;;;;;3.45;2.13;;;24.60;99.90;;;;;;5040145;28;20099;-86
2022/06/05 10:45:23;;;;;;;3.10;2.50;;;23.50;99.90;;;;;;5042209;28;20083;-86
2022/06/05 10:48:10;;;;;;;3.15;1.90;;;23.50;99.90;;;;;;5041182;28;20025;-87
2022/06/05 10:50:58;;;;;;;2.72;1.70;;;23.60;99.90;;;;;;5038777;28;20112;-87
2022/06/05 10:53:42;;;;;;;3.65;2.97;;;23.80;99.90;;;;;;5039031;28;20033;-87
2022/06/05 10:56:33;;;;;;;4.60;1.98;;;23.70;99.60;;;;;;5039425;28;20041;-88
2022/06/05 10:59:05;;;;;;;6.95;2.47;;;23.70;99.70;;;;;;5038399;28;20057;-86
2022/06/05 11:01:35;;;;;;;3.25;2.05;;;23.80;99.90;;;;;;5055582;28;20021;-86
2022/06/05 11:04:00;;;;;;;3.53;2.33;;;23.70;99.20;;;;;;5039252;28;20018;-87
2022/06/05 11:06:33;;;;;;;4.43;2.33;;;23.80;99.90;;;;;;5038422;28;20027;-87
2022/06/05 11:09:04;;;;;;;4.00;1.67;;;23.80;99.90;;;;;;5039240;28;20112;-86
2022/06/05 11:14:53;;;;;;;2.70;1.83;;;23.90;99.80;;;;;;5041463;28;20035;-87
2022/06/05 11:17:33;;;;;;;2.25;2.05;;;23.80;99.90;;;;;;5037908;28;20049;-87
2022/06/05 11:20:09;;;;;;;2.15;1.98;;;23.70;99.90;;;;;;5039197;28;20017;-86
2022/06/05 11:22:46;;;;;;;2.83;2.22;;;23.70;99.90;;;;;;5038828;28;20033;-88
2022/06/05 11:25:31;;;;;;;6.00;2.40;;;23.50;99.90;;;;;;5041315;28;20467;-86
2022/06/05 11:28:00;;;;;;;2.53;1.63;;;23.40;99.90;;;;;;5038661;28;20025;-87
2022/06/05 11:31:04;;;;;;;5.70;2.33;;;23.40;99.90;;;;;;5040766;28;20030;-84
2022/06/05 11:33:34;;;;;;;5.82;2.67;;;23.20;99.90;;;;;;5037973;28;20036;-87
2022/06/05 11:36:22;;;;;;;2.50;2.03;;;23.10;99.90;;;;;;5039067;28;20017;-85
2022/06/05 11:39:32;;;;;;;4.22;2.47;;;23.00;99.90;;;;;;5041105;28;20040;-86
2022/06/05 11:42:23;;;;;;;2.40;2.10;;;22.90;99.90;;;;;;5038904;28;20116;-85
2022/06/05 11:44:55;;;;;;;2.85;2.25;;;22.80;99.90;;;;;;5041358;28;20019;-85
2022/06/05 11:47:41;;;;;;;4.40;2.20;;;22.90;99.90;;;;;;5056443;28;20022;-85
2022/06/05 11:50:27;;;;;;;5.35;2.63;;;22.90;99.90;;;;;;5040196;28;20096;-86
2022/06/05 11:53:25;;;;;;;4.30;2.25;;;23.00;99.90;;;;;;5040017;28;20030;-84
2022/06/05 11:55:56;;;;;;;4.78;2.20;;;23.00;99.90;;;;;;5020707;28;20034;-86
2022/06/05 11:58:43;;;;;;;2.50;2.28;;;23.00;99.90;;;;;;5039158;28;20033;-85
2022/06/05 12:01:15;;;;;;;5.72;2.30;;;23.10;99.90;;;;;;5038752;28;20034;-85
2022/06/05 12:03:53;;;;;;;2.60;2.20;;;23.10;99.90;;;;;;5056294;28;20528;-86
2022/06/05 12:06:38;;;;;;;3.03;2.17;;;23.10;99.90;;;;;;5039032;28;20021;-87
2022/06/05 12:09:20;;;;;;;6.93;2.47;;;23.10;99.90;;;;;;5040104;28;20486;-86
2022/06/05 12:11:53;;;;;;;3.95;2.63;;;23.00;99.90;;;;;;5038399;28;20032;-85
2022/06/05 12:14:31;;;;;;;4.32;2.60;;;23.00;99.90;;;;;;5039558;28;20025;-85
2022/06/05 12:17:22;;;;;;;4.10;2.23;;;22.80;99.90;;;;;;5039417;28;20029;-85
2022/06/05 12:20:15;;;;;;;6.00;3.25;;;22.70;99.90;;;;;;5040041;28;20532;-85
2022/06/05 12:22:50;;;;;;;3.08;2.60;;;22.50;99.90;;;;;;5039259;28;20100;-85
2022/06/05 12:25:26;;;;;;;3.92;2.45;;;22.40;99.90;;;;;;5038249;28;20022;-85
2022/06/05 12:28:09;;;;;;;3.53;2.83;;;21.90;99.90;;;;;;5037964;28;20021;-84
2022/06/05 12:30:57;;;;;;;2.97;2.70;;;22.20;99.90;;;;;;5039957;28;20094;-84
2022/06/05 12:33:41;;;;;;;4.00;3.38;;;22.10;99.90;;;;;;5039582;28;20060;-86
2022/06/05 12:36:19;;;;;;;3.15;2.80;;;22.00;99.90;;;;;;5037484;28;20116;-85
2022/06/05 12:38:53;;;;;;;3.95;2.42;;;21.80;99.90;;;;;;5039849;28;20029;-85
2022/06/05 12:41:19;;;;;;;2.95;2.65;;;22.00;99.90;;;;;;5039992;28;20017;-85
2022/06/05 12:43:56;;;;;;;3.05;2.80;;;22.00;99.90;;;;;;5039572;28;20096;-85
2022/06/05 12:46:28;;;;;;;3.40;3.10;;;22.00;99.90;;;;;;5038016;28;20116;-84
2022/06/05 12:49:12;;;;;;;2.78;2.47;;;22.80;99.90;;;;;;5039124;28;20029;-84
2022/06/05 12:51:44;;;;;;;2.55;2.35;;;22.10;99.90;;;;;;5039158;28;20037;-85
2022/06/05 12:54:39;;;;;;;4.32;3.22;;;22.10;99.90;;;;;;5037405;28;20017;-85
2022/06/05 12:57:14;;;;;;;5.38;3.80;;;22.10;99.90;;;;;;5038825;28;20538;-84
2022/06/05 13:00:04;;;;;;;6.35;2.35;;;22.10;99.90;;;;;;5038818;28;20096;-84
2022/06/05 13:02:41;;;;;;;3.83;2.53;;;22.10;99.90;;;;;;5040722;28;20490;-85
2022/06/05 13:05:19;;;;;;;3.97;3.35;;;22.00;99.90;;;;;;5042096;28;20017;-85
2022/06/05 13:07:49;;;;;;;;;;;21.90;99.90;;;;;;5040573;28;20025;-85
2022/06/05 13:10:31;;;;;;;3.45;2.67;;;21.70;99.90;;;;;;5040791;28;20002;-85
2022/06/05 13:13:29;;;;;;;3.78;3.00;;;21.70;99.90;;;;;;5039719;28;20037;-85
2022/06/05 13:16:02;;;;;;;5.18;3.13;;;21.60;99.90;;;;;;5033955;28;20057;-84
2022/06/05 13:18:57;;;;;;;4.38;2.65;;;21.50;99.90;;;;;;5038934;28;20028;-84
2022/06/05 13:21:56;;;;;;;6.07;3.75;;;21.40;99.90;;;;;;5038718;28;20123;-84
2022/06/05 13:24:46;;;;;;;3.83;3.13;;;21.30;99.90;;;;;;5039536;28;20063;-84
2022/06/05 13:27:51;;;;;;;7.65;4.15;;;21.20;99.90;;;;;;5041541;28;20025;-85
2022/06/05 13:30:23;;;;;;;3.88;3.50;;;21.00;99.90;;;;;;5068947;22;20038;-84
2022/06/05 13:33:24;;;;;;;5.63;3.75;;;18.40;99.90;;;;;;5059814;28;20021;-84
2022/06/05 13:36:07;;;;;;;5.05;3.95;;;20.80;99.90;;;;;;5052972;28;20048;-84
2022/06/05 13:38:51;;;;;;;4.60;4.00;;;20.80;99.90;;;;;;5061057;28;20021;-84
2022/06/05 13:41:39;;;;;;;5.15;3.63;;;20.80;99.90;;;;;;5063561;28;20064;-86
2022/06/05 13:44:20;;;;;;;6.70;4.10;;;20.70;99.90;;;;;;5060912;28;20495;-85
2022/06/05 13:46:57;;;;;;;5.68;4.15;;;20.70;99.90;;;;;;5060219;28;20025;-85